Time;durP1;ratioP1;P1;durP2;ratioP2;P2;SDS_P1;SDS_P2;PMS_P1;PMS_P2;Temp;Humidity;BMP_temperature;BMP_pressure;BME280_temperature;BME280_humidity;BME280_pressure;Samples;Min_cycle;Max_cycle;Signal;HPM_P1;HPM_P2
2021/06/08 00:01:07;;;;;;;4.00;3.17;;;;;;;;;;5013888;28;20874;-68
2021/06/08 00:03:33;;;;;;;5.67;3.70;;;;;;;;;;5011359;28;20482;-67
2021/06/08 00:05:59;;;;;;;3.90;2.90;;;;;;;;;;5008681;28;20455;-67
2021/06/08 00:08:25;;;;;;;4.10;3.13;;;;;;;;;;5007544;28;20501;-67
2021/06/08 00:10:51;;;;;;;5.10;3.37;;;;;;;;;;4994299;28;20401;-68
2021/06/08 00:13:18;;;;;;;3.43;3.03;;;;;;;;;;4998729;28;20435;-67
2021/06/08 00:15:44;;;;;;;4.60;3.57;;;;;;;;;;5013968;28;20459;-67
2021/06/08 00:18:10;;;;;;;3.40;3.10;;;;;;;;;;5011917;28;20431;-67
2021/06/08 00:20:36;;;;;;;4.20;3.60;;;;;;;;;;5013866;28;20404;-66
2021/06/08 00:23:02;;;;;;;6.57;4.30;;;;;;;;;;5013419;28;20779;-67
2021/06/08 00:25:28;;;;;;;6.73;3.57;;;;;;;;;;5013230;28;20490;-67
2021/06/08 00:27:56;;;;;;;8.90;4.10;;;;;;;;;;5011884;28;20427;-66
2021/06/08 00:30:23;;;;;;;4.37;3.77;;;;;;;;;;5012517;28;20510;-67
2021/06/08 00:32:49;;;;;;;3.97;3.60;;;;;;;;;;5007845;28;20431;-68
2021/06/08 00:35:15;;;;;;;5.10;4.07;;;;;;;;;;5013480;28;20415;-67
2021/06/08 00:37:41;;;;;;;5.20;4.00;;;;;;;;;;5013392;28;20466;-67
2021/06/08 00:40:07;;;;;;;4.67;4.17;;;;;;;;;;5012693;28;20431;-67
2021/06/08 00:42:36;;;;;;;4.53;4.10;;;;;;;;;;5013087;28;20442;-67
2021/06/08 00:45:05;;;;;;;5.40;3.60;;;;;;;;;;5012139;28;20467;-67
2021/06/08 00:47:31;;;;;;;5.67;3.70;;;;;;;;;;5013185;28;20431;-66
2021/06/08 00:49:57;;;;;;;5.10;3.93;;;;;;;;;;5012119;28;20780;-67
2021/06/08 00:52:24;;;;;;;5.00;4.17;;;;;;;;;;5013405;28;20408;-67
2021/06/08 00:54:50;;;;;;;5.57;3.90;;;;;;;;;;4996547;28;20590;-67
2021/06/08 00:57:16;;;;;;;7.10;4.47;;;;;;;;;;4993526;28;20459;-67
2021/06/08 00:59:42;;;;;;;3.90;3.20;;;;;;;;;;5010382;28;20435;-67
2021/06/08 01:02:08;;;;;;;4.93;4.00;;;;;;;;;;5013174;28;20487;-67
2021/06/08 01:04:34;;;;;;;5.47;4.13;;;;;;;;;;5012039;28;20467;-67
2021/06/08 01:07:00;;;;;;;5.50;3.70;;;;;;;;;;5013351;28;20506;-67
2021/06/08 01:09:26;;;;;;;4.97;4.00;;;;;;;;;;5014536;28;20838;-67
2021/06/08 01:11:52;;;;;;;4.40;4.00;;;;;;;;;;5010164;28;20925;-67
2021/06/08 01:14:19;;;;;;;4.47;3.67;;;;;;;;;;5014743;28;20525;-67
2021/06/08 01:16:45;;;;;;;4.87;3.90;;;;;;;;;;5016855;28;20436;-67
2021/06/08 01:19:11;;;;;;;4.07;3.67;;;;;;;;;;5014497;28;20481;-67
2021/06/08 01:21:37;;;;;;;10.20;4.90;;;;;;;;;;5016638;28;20490;-67
2021/06/08 01:24:03;;;;;;;5.27;4.30;;;;;;;;;;5014548;28;20448;-66
2021/06/08 01:26:30;;;;;;;4.90;4.40;;;;;;;;;;4997096;28;20416;-67
2021/06/08 01:28:57;;;;;;;3.83;3.43;;;;;;;;;;4999054;28;20524;-67
2021/06/08 01:31:24;;;;;;;5.73;3.60;;;;;;;;;;5016496;28;20400;-67
2021/06/08 01:33:50;;;;;;;4.80;4.30;;;;;;;;;;5015528;28;20410;-67
2021/06/08 01:36:17;;;;;;;4.37;3.40;;;;;;;;;;5016637;28;20411;-67
2021/06/08 01:38:44;;;;;;;4.80;4.23;;;;;;;;;;5015338;28;20760;-67
2021/06/08 01:41:14;;;;;;;6.67;4.17;;;;;;;;;;5016304;28;20904;-67
2021/06/08 01:43:41;;;;;;;4.30;3.30;;;;;;;;;;5015600;28;20549;-67
2021/06/08 01:46:08;;;;;;;4.67;4.10;;;;;;;;;;4996595;28;20447;-67
2021/06/08 01:48:34;;;;;;;5.63;4.30;;;;;;;;;;5010783;28;20411;-67
2021/06/08 01:51:06;;;;;;;4.37;3.90;;;;;;;;;;5014973;28;20502;-67
2021/06/08 01:53:42;;;;;;;4.03;3.67;;;;;;;;;;5016346;28;20388;-67
2021/06/08 01:56:13;;;;;;;4.90;4.40;;;;;;;;;;5015173;28;20767;-67
2021/06/08 01:58:41;;;;;;;6.67;4.43;;;;;;;;;;5015895;28;20461;-66
2021/06/08 02:01:15;;;;;;;6.20;4.47;;;;;;;;;;5016122;28;20880;-67
2021/06/08 02:03:47;;;;;;;8.20;4.40;;;;;;;;;;4998304;28;20490;-67
2021/06/08 02:06:13;;;;;;;5.17;4.67;;;;;;;;;;5015454;28;20446;-67
2021/06/08 02:08:39;;;;;;;3.73;3.40;;;;;;;;;;5016124;28;20428;-67
2021/06/08 02:11:11;;;;;;;6.17;4.93;;;;;;;;;;5014887;28;20424;-67
2021/06/08 02:13:37;;;;;;;4.70;3.60;;;;;;;;;;5016042;28;20404;-66
2021/06/08 02:16:07;;;;;;;5.63;3.80;;;;;;;;;;5014738;28;20439;-67
2021/06/08 02:18:34;;;;;;;5.10;4.07;;;;;;;;;;5013660;28;20423;-67
2021/06/08 02:21:01;;;;;;;4.20;3.80;;;;;;;;;;5006029;28;20471;-67
2021/06/08 02:23:28;;;;;;;4.53;3.90;;;;;;;;;;4995815;28;20766;-67
2021/06/08 02:25:54;;;;;;;5.37;4.47;;;;;;;;;;5019772;22;20507;-64
2021/06/08 02:28:23;;;;;;;6.50;4.23;;;;;;;;;;4996387;28;20750;-64
2021/06/08 02:30:49;;;;;;;4.63;4.00;;;;;;;;;;5010544;28;20435;-63
2021/06/08 02:33:16;;;;;;;7.73;3.97;;;;;;;;;;4996278;28;20397;-64
2021/06/08 02:35:44;;;;;;;7.20;4.07;;;;;;;;;;4997134;28;20940;-64
2021/06/08 02:38:10;;;;;;;5.93;4.53;;;;;;;;;;4999337;28;20484;-64
2021/06/08 02:40:38;;;;;;;5.07;4.07;;;;;;;;;;4999093;28;20535;-64
2021/06/08 02:43:04;;;;;;;7.30;4.07;;;;;;;;;;5000073;28;20465;-64
2021/06/08 02:45:31;;;;;;;4.60;3.80;;;;;;;;;;4998546;28;20499;-64
2021/06/08 02:47:58;;;;;;;3.80;3.40;;;;;;;;;;4999282;28;20409;-64
2021/06/08 02:50:24;;;;;;;4.70;4.13;;;;;;;;;;4998703;28;20789;-64
2021/06/08 02:52:54;;;;;;;5.80;3.83;;;;;;;;;;4999248;28;20529;-64
2021/06/08 02:55:21;;;;;;;5.17;3.53;;;;;;;;;;4996377;28;20483;-64
2021/06/08 02:57:48;;;;;;;4.40;3.63;;;;;;;;;;4999112;28;20408;-65
2021/06/08 03:00:15;;;;;;;6.17;3.87;;;;;;;;;;4998897;28;20496;-64
2021/06/08 03:02:42;;;;;;;6.53;4.40;;;;;;;;;;4998804;28;20411;-64
2021/06/08 03:05:15;;;;;;;5.00;4.07;;;;;;;;;;4998007;28;20466;-64
2021/06/08 03:07:44;;;;;;;6.57;4.80;;;;;;;;;;4999382;28;20537;-64
2021/06/08 03:10:12;;;;;;;7.10;4.53;;;;;;;;;;4998582;28;20431;-64
2021/06/08 03:12:41;;;;;;;5.40;4.13;;;;;;;;;;4999171;28;20479;-64
2021/06/08 03:15:08;;;;;;;4.63;4.10;;;;;;;;;;4997848;28;20444;-64
2021/06/08 03:17:36;;;;;;;5.70;5.03;;;;;;;;;;4998834;28;20445;-64
2021/06/08 03:20:11;;;;;;;7.30;4.30;;;;;;;;;;4992277;28;20910;-64
2021/06/08 03:22:38;;;;;;;5.53;4.60;;;;;;;;;;4979666;28;20390;-64
2021/06/08 03:25:04;;;;;;;5.77;4.93;;;;;;;;;;4982049;28;20480;-64
2021/06/08 03:27:30;;;;;;;5.10;4.60;;;;;;;;;;4998368;28;20493;-64
2021/06/08 03:29:58;;;;;;;4.90;4.37;;;;;;;;;;4994359;28;20453;-65
2021/06/08 03:32:25;;;;;;;5.37;4.87;;;;;;;;;;4978717;28;20808;-64
2021/06/08 03:34:51;;;;;;;6.20;5.10;;;;;;;;;;4978933;28;20472;-64
2021/06/08 03:37:19;;;;;;;6.90;5.47;;;;;;;;;;4997843;28;20439;-64
2021/06/08 03:39:46;;;;;;;6.67;5.40;;;;;;;;;;4998367;28;20405;-64
2021/06/08 03:42:12;;;;;;;5.37;4.70;;;;;;;;;;4997500;28;20428;-64
2021/06/08 03:44:38;;;;;;;5.60;4.70;;;;;;;;;;4998226;28;20460;-64
2021/06/08 03:47:04;;;;;;;6.00;5.30;;;;;;;;;;4997990;28;20477;-64
2021/06/08 03:49:30;;;;;;;7.13;4.57;;;;;;;;;;4994585;28;21034;-64
2021/06/08 03:51:56;;;;;;;7.00;5.57;;;;;;;;;;4979036;28;20508;-64
2021/06/08 03:54:23;;;;;;;5.70;4.50;;;;;;;;;;4979568;28;20787;-64
2021/06/08 03:56:52;;;;;;;4.77;3.70;;;;;;;;;;4993144;28;20432;-64
2021/06/08 03:59:19;;;;;;;8.10;5.10;;;;;;;;;;4998556;28;20468;-64
2021/06/08 04:01:45;;;;;;;5.27;4.10;;;;;;;;;;4998301;28;20432;-64
2021/06/08 04:04:12;;;;;;;5.23;4.73;;;;;;;;;;4998884;28;20452;-64
2021/06/08 04:06:39;;;;;;;5.33;4.70;;;;;;;;;;4998278;28;20483;-64
2021/06/08 04:09:06;;;;;;;5.30;3.93;;;;;;;;;;4998426;28;20409;-64
2021/06/08 04:11:32;;;;;;;5.80;4.30;;;;;;;;;;4998110;28;20444;-64
2021/06/08 04:13:58;;;;;;;5.57;4.90;;;;;;;;;;4998633;28;20412;-65
2021/06/08 04:16:24;;;;;;;5.93;4.63;;;;;;;;;;4997905;28;20440;-64
2021/06/08 04:18:51;;;;;;;5.00;3.97;;;;;;;;;;4997718;28;20476;-64
2021/06/08 04:21:17;;;;;;;5.93;4.73;;;;;;;;;;4989705;28;20484;-64
2021/06/08 04:23:43;;;;;;;4.67;4.10;;;;;;;;;;4979375;28;20461;-64
2021/06/08 04:26:09;;;;;;;5.10;4.47;;;;;;;;;;4986695;28;20522;-64
2021/06/08 04:28:35;;;;;;;4.80;4.03;;;;;;;;;;4997735;28;20762;-64
2021/06/08 04:31:01;;;;;;;5.13;4.63;;;;;;;;;;4997595;28;20424;-64
2021/06/08 04:33:28;;;;;;;4.93;4.43;;;;;;;;;;4998875;28;20404;-65
2021/06/08 04:35:55;;;;;;;5.97;4.90;;;;;;;;;;4997495;28;20436;-64
2021/06/08 04:38:21;;;;;;;5.83;4.97;;;;;;;;;;4998292;28;20401;-64
2021/06/08 04:40:49;;;;;;;6.30;4.70;;;;;;;;;;4993963;28;20790;-64
2021/06/08 04:43:20;;;;;;;4.80;4.30;;;;;;;;;;4979145;28;20941;-64
2021/06/08 04:45:46;;;;;;;5.30;4.53;;;;;;;;;;4981931;28;20456;-64
2021/06/08 04:48:12;;;;;;;5.47;4.83;;;;;;;;;;4998633;28;20401;-64
2021/06/08 04:50:38;;;;;;;4.53;3.90;;;;;;;;;;4994755;28;20840;-65
2021/06/08 04:53:04;;;;;;;5.80;4.77;;;;;;;;;;4978772;28;20412;-64
2021/06/08 04:55:31;;;;;;;6.00;4.60;;;;;;;;;;4993721;28;20495;-64
2021/06/08 04:57:57;;;;;;;4.73;4.20;;;;;;;;;;4978225;28;20469;-64
2021/06/08 05:00:35;;;;;;;6.83;5.07;;;;;;;;;;4978561;28;20405;-65
2021/06/08 05:03:07;;;;;;;5.23;4.00;;;;;;;;;;4979808;28;20401;-64
2021/06/08 05:05:36;;;;;;;4.93;3.90;;;;;;;;;;4980491;28;20544;-65
2021/06/08 05:08:20;;;;;;;5.17;4.27;;;;;;;;;;4999093;28;20409;-64
2021/06/08 05:10:55;;;;;;;5.40;4.03;;;;;;;;;;5013477;28;20495;-65
2021/06/08 05:13:22;;;;;;;5.57;4.70;;;;;;;;;;4999169;28;20432;-64
2021/06/08 05:15:51;;;;;;;6.07;4.67;;;;;;;;;;4995552;28;20504;-66
2021/06/08 05:18:17;;;;;;;6.80;5.60;;;;;;;;;;4979205;28;20823;-64
2021/06/08 05:20:45;;;;;;;6.43;5.20;;;;;;;;;;4980082;28;20520;-65
2021/06/08 05:23:13;;;;;;;6.10;4.90;;;;;;;;;;4979721;28;20413;-64
2021/06/08 05:25:39;;;;;;;5.33;4.60;;;;;;;;;;4979924;28;20477;-64
2021/06/08 05:28:06;;;;;;;10.40;5.83;;;;;;;;;;4998357;28;20424;-64
2021/06/08 05:30:32;;;;;;;6.60;4.90;;;;;;;;;;4995779;28;20476;-65
2021/06/08 05:32:58;;;;;;;5.83;4.90;;;;;;;;;;4979776;28;20571;-64
2021/06/08 05:35:28;;;;;;;5.27;4.47;;;;;;;;;;4978660;28;20425;-64
2021/06/08 05:37:54;;;;;;;6.13;5.50;;;;;;;;;;4996965;28;20491;-65
2021/06/08 05:40:22;;;;;;;6.00;4.27;;;;;;;;;;4997739;28;20411;-65
2021/06/08 05:42:49;;;;;;;6.40;5.73;;;;;;;;;;4997005;28;20463;-65
2021/06/08 05:45:15;;;;;;;7.40;6.30;;;;;;;;;;4997964;28;20456;-64
2021/06/08 05:47:42;;;;;;;7.90;6.43;;;;;;;;;;4997820;28;20490;-65
2021/06/08 05:50:08;;;;;;;8.63;6.27;;;;;;;;;;4997358;28;20412;-64
2021/06/08 05:52:35;;;;;;;8.63;6.77;;;;;;;;;;4996782;28;20563;-65
2021/06/08 05:55:01;;;;;;;8.00;5.63;;;;;;;;;;4999376;28;20432;-64
2021/06/08 05:57:28;;;;;;;8.50;6.77;;;;;;;;;;5014204;28;20436;-64
2021/06/08 05:59:54;;;;;;;8.63;6.00;;;;;;;;;;5000761;28;20443;-64
2021/06/08 06:02:21;;;;;;;7.63;6.03;;;;;;;;;;4998523;28;20438;-65
2021/06/08 06:04:47;;;;;;;8.23;5.47;;;;;;;;;;4999462;28;20472;-64
2021/06/08 06:07:14;;;;;;;7.40;5.73;;;;;;;;;;4996399;28;20425;-64
2021/06/08 06:09:40;;;;;;;6.70;5.63;;;;;;;;;;4999418;28;20838;-64
2021/06/08 06:12:07;;;;;;;6.70;6.10;;;;;;;;;;4997632;28;20456;-64
2021/06/08 06:14:34;;;;;;;9.20;7.37;;;;;;;;;;4998093;28;20983;-64
2021/06/08 06:17:01;;;;;;;12.03;8.23;;;;;;;;;;4987865;28;20436;-65
2021/06/08 06:19:28;;;;;;;9.83;8.60;;;;;;;;;;4978974;28;20420;-64
2021/06/08 06:21:58;;;;;;;12.13;7.73;;;;;;;;;;4978911;28;20433;-62
2021/06/08 06:24:28;;;;;;;13.03;7.50;;;;;;;;;;4978620;28;20465;-64
2021/06/08 06:26:55;;;;;;;8.27;6.90;;;;;;;;;;4986916;28;20432;-64
2021/06/08 06:29:21;;;;;;;10.37;8.50;;;;;;;;;;4998326;28;20415;-64
2021/06/08 06:31:48;;;;;;;11.00;8.40;;;;;;;;;;4997745;28;20435;-65
2021/06/08 06:34:16;;;;;;;7.77;6.97;;;;;;;;;;4998178;28;20411;-64
2021/06/08 06:36:43;;;;;;;9.50;8.17;;;;;;;;;;4994032;28;20515;-65
2021/06/08 06:39:11;;;;;;;11.03;9.00;;;;;;;;;;4997549;28;20411;-64
2021/06/08 06:41:40;;;;;;;9.30;7.97;;;;;;;;;;4997150;28;20455;-64
2021/06/08 06:44:07;;;;;;;12.67;7.73;;;;;;;;;;4996081;28;20456;-65
2021/06/08 06:46:33;;;;;;;10.80;9.00;;;;;;;;;;4992291;28;20460;-64
2021/06/08 06:48:59;;;;;;;10.80;8.30;;;;;;;;;;4993722;28;20409;-64
2021/06/08 06:51:26;;;;;;;8.53;7.17;;;;;;;;;;4994033;28;20425;-64
2021/06/08 06:53:55;;;;;;;10.70;8.30;;;;;;;;;;4995338;28;20773;-64
2021/06/08 06:56:22;;;;;;;9.70;8.70;;;;;;;;;;5012235;28;20454;-64
2021/06/08 06:58:48;;;;;;;12.27;8.67;;;;;;;;;;4997971;28;20507;-64
2021/06/08 07:01:15;;;;;;;10.87;8.93;;;;;;;;;;4996374;28;20899;-64
2021/06/08 07:03:41;;;;;;;12.80;9.37;;;;;;;;;;4995294;28;20567;-64
2021/06/08 07:06:09;;;;;;;10.97;9.10;;;;;;;;;;4997553;28;20424;-64
2021/06/08 07:08:36;;;;;;;13.70;8.97;;;;;;;;;;4997805;28;20416;-64
2021/06/08 07:11:02;;;;;;;10.53;9.43;;;;;;;;;;4996722;28;20421;-64
2021/06/08 07:13:28;;;;;;;10.93;9.67;;;;;;;;;;4998334;28;20425;-64
2021/06/08 07:15:54;;;;;;;14.50;8.87;;;;;;;;;;4998862;28;20847;-64
2021/06/08 07:18:21;;;;;;;9.93;8.60;;;;;;;;;;4998325;28;20424;-64
2021/06/08 07:20:47;;;;;;;9.73;8.47;;;;;;;;;;4998676;28;20421;-64
2021/06/08 07:23:16;;;;;;;12.77;9.83;;;;;;;;;;4997445;28;20425;-63
2021/06/08 07:25:43;;;;;;;11.50;10.30;;;;;;;;;;4997453;28;20964;-64
2021/06/08 07:28:10;;;;;;;10.63;9.53;;;;;;;;;;4986884;28;20429;-63
2021/06/08 07:30:37;;;;;;;12.03;10.93;;;;;;;;;;4997866;28;20424;-65
2021/06/08 07:33:07;;;;;;;12.33;11.00;;;;;;;;;;4995836;28;20436;-64
2021/06/08 07:35:36;;;;;;;10.93;9.50;;;;;;;;;;4994758;28;20455;-65
2021/06/08 07:38:08;;;;;;;12.70;11.20;;;;;;;;;;4992745;28;20424;-64
2021/06/08 07:40:37;;;;;;;13.30;10.97;;;;;;;;;;4995440;28;20488;-64
2021/06/08 07:43:04;;;;;;;12.57;11.27;;;;;;;;;;4994260;28;20515;-64
2021/06/08 07:45:38;;;;;;;13.67;12.27;;;;;;;;;;4995214;28;20472;-63
2021/06/08 07:48:05;;;;;;;15.10;10.33;;;;;;;;;;4996542;28;20420;-64
2021/06/08 07:50:33;;;;;;;14.77;12.73;;;;;;;;;;4997673;28;20519;-64
2021/06/08 07:53:02;;;;;;;12.70;11.03;;;;;;;;;;5001546;28;20439;-64
2021/06/08 07:55:28;;;;;;;13.30;10.33;;;;;;;;;;4995437;28;20819;-64
2021/06/08 07:57:55;;;;;;;13.47;11.07;;;;;;;;;;4996522;28;20436;-64
2021/06/08 08:00:21;;;;;;;13.50;10.87;;;;;;;;;;4997210;28;20791;-64
2021/06/08 08:02:48;;;;;;;10.80;8.90;;;;;;;;;;4996479;28;20427;-64
2021/06/08 08:05:17;;;;;;;11.30;10.10;;;;;;;;;;4995812;28;20471;-64
2021/06/08 08:07:44;;;;;;;11.63;9.87;;;;;;;;;;4995354;28;20423;-64
2021/06/08 08:10:10;;;;;;;12.53;11.17;;;;;;;;;;4992413;28;20408;-64
2021/06/08 08:12:38;;;;;;;14.07;12.07;;;;;;;;;;4995949;28;20428;-64
2021/06/08 08:15:05;;;;;;;14.27;10.30;;;;;;;;;;4993954;28;20860;-64
2021/06/08 08:17:31;;;;;;;12.73;11.43;;;;;;;;;;4992207;28;20447;-64
2021/06/08 08:19:57;;;;;;;12.77;11.40;;;;;;;;;;4992734;28;20508;-64
2021/06/08 08:22:23;;;;;;;13.50;11.20;;;;;;;;;;4993675;28;20432;-64
2021/06/08 08:24:49;;;;;;;11.57;10.43;;;;;;;;;;4994829;28;20472;-64
2021/06/08 08:27:16;;;;;;;11.33;10.20;;;;;;;;;;4994586;28;20455;-64
2021/06/08 08:29:45;;;;;;;14.27;10.53;;;;;;;;;;4996060;28;20416;-64
2021/06/08 08:32:11;;;;;;;14.40;11.87;;;;;;;;;;4992326;28;20771;-64
2021/06/08 08:34:38;;;;;;;12.00;10.80;;;;;;;;;;4994342;28;20455;-64
2021/06/08 08:37:04;;;;;;;11.97;10.37;;;;;;;;;;4991978;28;20482;-64
2021/06/08 08:39:30;;;;;;;16.87;13.17;;;;;;;;;;4993197;28;20413;-64
2021/06/08 08:41:56;;;;;;;15.80;12.20;;;;;;;;;;4992477;28;20520;-64
2021/06/08 08:44:22;;;;;;;13.90;12.60;;;;;;;;;;4992771;28;20499;-64
2021/06/08 08:46:48;;;;;;;13.57;11.03;;;;;;;;;;4993391;28;20408;-64
2021/06/08 08:49:14;;;;;;;12.70;11.43;;;;;;;;;;4992945;28;20420;-64
2021/06/08 08:51:42;;;;;;;13.83;12.33;;;;;;;;;;4992855;28;20444;-64
2021/06/08 08:54:08;;;;;;;12.23;10.93;;;;;;;;;;4989831;28;20991;-64
2021/06/08 08:56:36;;;;;;;14.00;12.17;;;;;;;;;;4993008;28;20428;-64
2021/06/08 08:59:03;;;;;;;12.97;10.60;;;;;;;;;;4987027;28;20519;-65
2021/06/08 09:01:30;;;;;;;12.37;10.90;;;;;;;;;;4993383;28;20417;-65
2021/06/08 09:03:56;;;;;;;12.53;10.77;;;;;;;;;;4991620;28;20549;-65
2021/06/08 09:06:22;;;;;;;13.60;11.70;;;;;;;;;;4988297;28;20448;-65
2021/06/08 09:08:48;;;;;;;13.23;10.63;;;;;;;;;;4991314;28;20511;-65
2021/06/08 09:11:15;;;;;;;13.50;11.57;;;;;;;;;;4992673;28;20423;-64
2021/06/08 09:13:41;;;;;;;14.00;12.60;;;;;;;;;;4992734;28;20432;-65
2021/06/08 09:16:10;;;;;;;11.10;9.97;;;;;;;;;;4993036;28;20774;-65
2021/06/08 09:18:36;;;;;;;13.20;10.60;;;;;;;;;;4992636;28;20796;-65
2021/06/08 09:21:12;;;;;;;15.57;11.30;;;;;;;;;;4992977;28;20532;-65
2021/06/08 09:23:38;;;;;;;13.27;11.93;;;;;;;;;;4991108;28;20506;-64
2021/06/08 09:26:04;;;;;;;12.77;11.23;;;;;;;;;;4991616;28;20484;-64
2021/06/08 09:28:31;;;;;;;14.23;12.80;;;;;;;;;;4994812;28;20438;-64
2021/06/08 09:31:00;;;;;;;14.50;13.00;;;;;;;;;;4989207;28;20417;-63
2021/06/08 09:33:28;;;;;;;13.87;12.30;;;;;;;;;;4990186;28;20428;-63
2021/06/08 09:35:54;;;;;;;17.23;11.20;;;;;;;;;;4996149;28;20452;-63
2021/06/08 09:38:21;;;;;;;13.90;11.50;;;;;;;;;;4991837;28;20423;-63
2021/06/08 09:40:47;;;;;;;14.13;12.70;;;;;;;;;;4997260;28;20474;-63
2021/06/08 09:43:14;;;;;;;14.90;12.20;;;;;;;;;;4995782;28;20788;-63
2021/06/08 09:45:47;;;;;;;17.10;12.73;;;;;;;;;;4997149;28;20585;-63
2021/06/08 09:48:15;;;;;;;14.23;11.93;;;;;;;;;;4995306;28;20439;-63
2021/06/08 09:50:42;;;;;;;15.47;12.60;;;;;;;;;;4996201;28;20570;-63
2021/06/08 09:53:15;;;;;;;16.87;13.27;;;;;;;;;;4996820;28;20431;-63
2021/06/08 09:55:56;;;;;;;17.20;15.43;;;;;;;;;;4997423;28;20519;-63
2021/06/08 09:58:23;;;;;;;14.87;13.13;;;;;;;;;;4996012;28;20501;-63
2021/06/08 10:01:05;;;;;;;13.20;11.90;;;;;;;;;;4996927;28;20432;-63
2021/06/08 10:03:36;;;;;;;12.43;11.13;;;;;;;;;;4995621;28;20921;-63
2021/06/08 10:06:06;;;;;;;16.30;13.17;;;;;;;;;;4993997;28;20578;-63
2021/06/08 10:08:32;;;;;;;14.07;12.50;;;;;;;;;;5002921;28;20439;-63
2021/06/08 10:10:59;;;;;;;15.13;13.03;;;;;;;;;;4997881;28;20399;-63
2021/06/08 10:13:25;;;;;;;14.10;12.70;;;;;;;;;;4995521;28;20867;-63
2021/06/08 10:15:53;;;;;;;13.13;11.73;;;;;;;;;;4985964;28;20941;-63
2021/06/08 10:18:20;;;;;;;13.80;11.70;;;;;;;;;;4995691;28;20435;-63
2021/06/08 10:20:50;;;;;;;12.33;10.53;;;;;;;;;;4995576;28;20424;-63
2021/06/08 10:23:25;;;;;;;20.43;14.73;;;;;;;;;;4991615;28;20441;-63
2021/06/08 10:25:53;;;;;;;15.80;12.20;;;;;;;;;;4994383;28;20464;-63
2021/06/08 10:28:19;;;;;;;16.37;14.10;;;;;;;;;;4998246;28;20506;-63
2021/06/08 10:30:46;;;;;;;12.97;11.67;;;;;;;;;;4993964;28;20456;-63
2021/06/08 10:33:12;;;;;;;12.23;10.93;;;;;;;;;;4994995;28;20436;-63
2021/06/08 10:35:39;;;;;;;15.43;13.87;;;;;;;;;;4995725;28;20440;-63
2021/06/08 10:38:06;;;;;;;14.50;13.03;;;;;;;;;;4995051;28;20424;-63
2021/06/08 10:40:33;;;;;;;13.57;12.17;;;;;;;;;;5004488;28;20781;-63
2021/06/08 10:42:59;;;;;;;16.57;12.70;;;;;;;;;;5006209;28;20420;-63
2021/06/08 10:45:32;;;;;;;12.97;11.67;;;;;;;;;;4995439;28;20522;-63
2021/06/08 10:48:06;;;;;;;12.80;11.50;;;;;;;;;;4979024;28;20447;-63
2021/06/08 10:50:33;;;;;;;13.70;11.97;;;;;;;;;;4995776;28;20393;-63
2021/06/08 10:53:00;;;;;;;11.43;9.90;;;;;;;;;;4994926;28;20440;-63
2021/06/08 10:55:26;;;;;;;12.83;10.80;;;;;;;;;;4996139;28;20754;-63
2021/06/08 10:57:52;;;;;;;13.20;11.53;;;;;;;;;;4994024;28;20582;-63
2021/06/08 11:00:39;;;;;;;13.40;12.03;;;;;;;;;;4994746;28;20471;-63
2021/06/08 11:03:06;;;;;;;12.73;10.87;;;;;;;;;;4994339;28;20558;-64
2021/06/08 11:05:44;;;;;;;12.07;10.53;;;;;;;;;;4994651;28;20463;-63
2021/06/08 11:08:10;;;;;;;15.43;13.63;;;;;;;;;;4994495;28;20409;-63
2021/06/08 11:10:44;;;;;;;12.80;11.50;;;;;;;;;;4995570;28;20810;-64
2021/06/08 11:13:11;;;;;;;16.10;13.60;;;;;;;;;;4993832;28;20452;-63
2021/06/08 11:15:37;;;;;;;13.60;12.20;;;;;;;;;;4993219;28;20937;-64
2021/06/08 11:18:18;;;;;;;13.80;12.30;;;;;;;;;;4987209;28;20440;-64
2021/06/08 11:20:45;;;;;;;13.77;12.27;;;;;;;;;;4988003;28;20523;-64
2021/06/08 11:23:31;;;;;;;12.70;11.50;;;;;;;;;;4995690;28;20415;-64
2021/06/08 11:25:57;;;;;;;14.23;11.77;;;;;;;;;;4993810;28;21047;-64
2021/06/08 11:28:23;;;;;;;13.33;11.93;;;;;;;;;;4993790;28;20500;-64
2021/06/08 11:30:55;;;;;;;15.87;13.27;;;;;;;;;;4994520;28;20431;-65
2021/06/08 11:33:29;;;;;;;11.60;10.33;;;;;;;;;;4990370;28;20424;-64
2021/06/08 11:35:55;;;;;;;13.50;12.10;;;;;;;;;;4995751;28;20428;-64
2021/06/08 11:38:24;;;;;;;12.43;11.20;;;;;;;;;;4993393;28;20420;-63
2021/06/08 11:40:52;;;;;;;10.40;9.40;;;;;;;;;;5007970;28;20436;-64
2021/06/08 11:43:18;;;;;;;8.17;6.90;;;;;;;;;;4994557;28;20532;-64
2021/06/08 11:45:48;;;;;;;9.07;6.50;;;;;;;;;;4994840;28;20460;-64
2021/06/08 11:48:29;;;;;;;6.67;5.50;;;;;;;;;;4993997;28;20436;-64
2021/06/08 11:50:55;;;;;;;7.33;5.97;;;;;;;;;;4992802;28;20860;-64
2021/06/08 11:53:22;;;;;;;8.03;6.90;;;;;;;;;;4993003;28;20409;-64
2021/06/08 11:56:08;;;;;;;8.63;7.30;;;;;;;;;;4995063;28;20424;-64
2021/06/08 11:58:35;;;;;;;7.33;6.57;;;;;;;;;;4991991;28;20428;-64
2021/06/08 12:01:02;;;;;;;8.30;6.70;;;;;;;;;;4978589;28;20904;-64
2021/06/08 12:03:28;;;;;;;10.20;6.90;;;;;;;;;;4994372;28;20428;-63
2021/06/08 12:05:55;;;;;;;7.80;6.60;;;;;;;;;;4998009;28;20459;-63
2021/06/08 12:08:22;;;;;;;9.37;8.37;;;;;;;;;;4998062;28;20446;-63
2021/06/08 12:10:48;;;;;;;7.03;6.40;;;;;;;;;;4996600;28;20433;-64
2021/06/08 12:13:17;;;;;;;8.73;6.27;;;;;;;;;;4986855;28;20800;-64
2021/06/08 12:15:48;;;;;;;7.63;6.93;;;;;;;;;;4995666;28;20862;-64
2021/06/08 12:18:23;;;;;;;7.47;6.10;;;;;;;;;;4993792;28;20416;-64
2021/06/08 12:20:49;;;;;;;9.30;7.23;;;;;;;;;;4991727;28;20430;-64
2021/06/08 12:23:29;;;;;;;8.30;6.33;;;;;;;;;;4994089;28;20478;-64
2021/06/08 12:26:11;;;;;;;6.70;5.70;;;;;;;;;;4975810;28;20619;-64
2021/06/08 12:28:37;;;;;;;7.27;6.57;;;;;;;;;;4987667;28;20405;-64
2021/06/08 12:31:10;;;;;;;6.60;5.90;;;;;;;;;;4995437;28;20913;-64
2021/06/08 12:33:37;;;;;;;7.43;6.73;;;;;;;;;;5001613;28;20407;-65
2021/06/08 12:36:04;;;;;;;6.50;5.70;;;;;;;;;;4994312;28;20794;-64
2021/06/08 12:38:30;;;;;;;6.60;5.83;;;;;;;;;;4995388;28;20423;-64
2021/06/08 12:40:58;;;;;;;7.50;6.80;;;;;;;;;;5014829;28;20422;-66
2021/06/08 12:43:24;;;;;;;8.70;6.73;;;;;;;;;;4995999;28;20539;-65
2021/06/08 12:45:57;;;;;;;8.93;8.00;;;;;;;;;;4997632;28;20468;-64
2021/06/08 12:48:24;;;;;;;6.57;5.87;;;;;;;;;;4997678;28;20445;-65
2021/06/08 12:50:50;;;;;;;5.63;5.00;;;;;;;;;;4996077;28;20527;-66
2021/06/08 12:53:20;;;;;;;8.47;5.90;;;;;;;;;;4996657;28;20523;-65
2021/06/08 12:55:47;;;;;;;7.80;7.00;;;;;;;;;;4997556;28;20451;-64
2021/06/08 12:58:13;;;;;;;8.20;6.57;;;;;;;;;;4997053;28;20432;-65
2021/06/08 13:00:40;;;;;;;8.27;6.70;;;;;;;;;;4996654;28;20432;-65
2021/06/08 13:03:06;;;;;;;7.30;6.53;;;;;;;;;;4993470;28;20438;-65
2021/06/08 13:05:34;;;;;;;6.60;6.00;;;;;;;;;;4999282;28;20467;-65
2021/06/08 13:08:01;;;;;;;8.33;6.23;;;;;;;;;;5000870;28;20514;-64
2021/06/08 13:10:32;;;;;;;8.97;7.50;;;;;;;;;;4998888;28;20425;-65
2021/06/08 13:13:04;;;;;;;7.43;5.73;;;;;;;;;;5003910;28;20900;-64
2021/06/08 13:15:30;;;;;;;7.27;6.60;;;;;;;;;;4992219;28;20539;-64
2021/06/08 13:18:03;;;;;;;7.03;6.40;;;;;;;;;;4998881;28;20476;-65
2021/06/08 13:20:31;;;;;;;6.67;5.77;;;;;;;;;;4993376;28;20442;-65
2021/06/08 13:22:58;;;;;;;12.73;6.40;;;;;;;;;;4999940;28;20882;-64
2021/06/08 13:25:26;;;;;;;5.90;5.30;;;;;;;;;;4989999;28;20475;-66
2021/06/08 13:27:53;;;;;;;6.13;5.53;;;;;;;;;;4999105;28;20424;-65
2021/06/08 13:30:26;;;;;;;6.60;6.00;;;;;;;;;;4999217;28;20436;-64
2021/06/08 13:33:06;;;;;;;7.00;5.77;;;;;;;;;;5000195;28;20421;-65
2021/06/08 13:35:41;;;;;;;5.87;5.37;;;;;;;;;;4998542;28;20459;-65
2021/06/08 13:38:09;;;;;;;7.27;5.60;;;;;;;;;;4999399;28;20827;-66
2021/06/08 13:40:36;;;;;;;6.50;5.80;;;;;;;;;;4997943;28;20442;-65
2021/06/08 13:43:10;;;;;;;6.27;4.27;;;;;;;;;;4997310;28;20467;-65
2021/06/08 13:45:37;;;;;;;6.40;5.80;;;;;;;;;;4994861;28;20472;-65
2021/06/08 13:48:20;;;;;;;7.60;5.30;;;;;;;;;;4998110;28;20507;-64
2021/06/08 13:50:47;;;;;;;6.50;5.20;;;;;;;;;;4994929;28;20428;-65
2021/06/08 13:53:31;;;;;;;5.90;5.30;;;;;;;;;;5012008;28;20424;-65
2021/06/08 13:56:06;;;;;;;4.40;4.00;;;;;;;;;;4996747;28;20457;-65
2021/06/08 14:01:18;;;;;;;8.40;4.90;;;;;;;;;;4992347;28;20528;-65
2021/06/08 14:03:58;;;;;;;4.60;4.20;;;;;;;;;;5008124;28;20458;-62
2021/06/08 14:06:24;;;;;;;4.80;4.30;;;;;;;;;;4994502;28;20447;-65
2021/06/08 14:09:01;;;;;;;4.17;3.73;;;;;;;;;;4996890;28;20855;-64
2021/06/08 14:11:33;;;;;;;4.80;4.20;;;;;;;;;;4996602;28;20485;-64
2021/06/08 14:13:59;;;;;;;4.70;4.30;;;;;;;;;;4995251;28;20427;-64
2021/06/08 14:16:27;;;;;;;4.40;3.97;;;;;;;;;;4995689;28;20491;-65
2021/06/08 14:18:53;;;;;;;5.30;4.80;;;;;;;;;;4996102;28;20430;-64
2021/06/08 14:21:19;;;;;;;11.17;4.17;;;;;;;;;;4994841;28;20443;-64
2021/06/08 14:23:45;;;;;;;4.20;3.80;;;;;;;;;;4995399;28;20531;-64
2021/06/08 14:26:14;;;;;;;5.03;4.20;;;;;;;;;;4995002;28;20476;-64
2021/06/08 14:28:40;;;;;;;4.30;3.47;;;;;;;;;;4994011;28;20433;-64
2021/06/08 14:31:06;;;;;;;8.23;3.30;;;;;;;;;;4994938;28;20913;-64
2021/06/08 14:33:33;;;;;;;4.40;3.30;;;;;;;;;;4995219;28;20478;-64
2021/06/08 14:35:59;;;;;;;4.20;3.77;;;;;;;;;;4995547;28;20467;-64
2021/06/08 14:38:25;;;;;;;4.20;3.70;;;;;;;;;;4995671;28;20470;-64
2021/06/08 14:40:51;;;;;;;5.60;3.80;;;;;;;;;;4996412;28;20432;-65
2021/06/08 14:43:17;;;;;;;5.33;4.07;;;;;;;;;;4995869;28;20929;-65